createdAt,value
2024-02-16T00:01:43.162Z,21.20
2024-02-16T00:04:09.958Z,18.75
2024-02-16T00:06:37.117Z,14.52
2024-02-16T00:09:04.206Z,12.88
2024-02-16T00:11:31.060Z,10.25
2024-02-16T00:13:57.714Z,13.18
2024-02-16T00:16:26.103Z,12.65
2024-02-16T00:18:52.938Z,12.35
2024-02-16T00:21:19.788Z,9.60
2024-02-16T00:23:46.628Z,11.70
2024-02-16T00:26:13.334Z,14.43
2024-02-16T00:28:40.050Z,24.25
2024-02-16T00:31:07.227Z,28.15
2024-02-16T00:33:35.038Z,19.35
2024-02-16T00:36:02.146Z,15.43
2024-02-16T00:38:28.930Z,16.45
2024-02-16T00:40:55.774Z,16.75
2024-02-16T00:43:22.429Z,14.60
2024-02-16T00:45:49.728Z,18.10
2024-02-16T00:48:16.993Z,15.60
2024-02-16T00:50:44.622Z,29.02
2024-02-16T00:53:11.683Z,32.97
2024-02-16T00:55:39.459Z,11.65
2024-02-16T00:58:06.219Z,13.48
2024-02-16T01:00:33.170Z,11.50
2024-02-16T01:02:59.950Z,17.20
2024-02-16T01:05:26.652Z,14.77
2024-02-16T01:07:53.546Z,18.10
2024-02-16T01:10:20.469Z,18.65
2024-02-16T01:12:47.170Z,23.73
2024-02-16T01:15:13.852Z,20.67
2024-02-16T01:17:40.973Z,16.05
2024-02-16T01:20:12.309Z,15.57
2024-02-16T01:22:40.180Z,16.70
2024-02-16T01:25:08.502Z,12.40
2024-02-16T01:27:36.700Z,12.45
2024-02-16T01:30:04.615Z,10.52
2024-02-16T01:32:31.882Z,9.77
2024-02-16T01:34:59.396Z,8.93
2024-02-16T01:37:26.368Z,9.57
2024-02-16T01:39:53.705Z,10.55
2024-02-16T01:42:20.558Z,10.18
2024-02-16T01:44:47.461Z,13.88
2024-02-16T01:47:14.252Z,14.82
2024-02-16T01:49:41.092Z,10.52
2024-02-16T01:52:07.815Z,10.15
2024-02-16T01:54:34.658Z,18.85
2024-02-16T01:57:02.297Z,14.52
2024-02-16T01:59:29.263Z,12.35
2024-02-16T02:01:55.916Z,19.75
2024-02-16T02:04:22.673Z,18.30
2024-02-16T02:06:49.538Z,21.83
2024-02-16T02:09:16.453Z,16.45
2024-02-16T02:11:43.150Z,20.98
2024-02-16T02:14:09.796Z,12.25
2024-02-16T02:16:44.765Z,21.65
2024-02-16T02:19:18.405Z,12.48
2024-02-16T02:21:45.093Z,16.42
2024-02-16T02:24:12.266Z,11.65
2024-02-16T02:26:39.549Z,11.43
2024-02-16T02:29:06.729Z,14.90
2024-02-16T02:31:33.477Z,15.70
2024-02-16T02:34:00.378Z,16.50
2024-02-16T02:36:27.313Z,18.35
2024-02-16T02:38:54.186Z,16.15
2024-02-16T02:41:21.436Z,16.88
2024-02-16T02:43:48.135Z,12.55
2024-02-16T02:46:17.948Z,54.15
2024-02-16T02:48:49.440Z,36.53
2024-02-16T02:51:18.670Z,16.25
2024-02-16T02:53:45.362Z,26.13
2024-02-16T02:56:12.123Z,28.05
2024-02-16T02:58:40.805Z,21.88
2024-02-16T03:01:09.516Z,16.10
2024-02-16T03:03:36.729Z,10.43
2024-02-16T03:06:04.942Z,12.65
2024-02-16T03:08:32.245Z,7.70
2024-02-16T03:11:02.261Z,7.03
2024-02-16T03:13:29.265Z,6.85
2024-02-16T03:15:55.901Z,7.32
2024-02-16T03:18:23.550Z,9.10
2024-02-16T03:20:51.456Z,12.13
2024-02-16T03:23:19.135Z,14.23
2024-02-16T03:25:46.037Z,25.30
2024-02-16T03:28:13.485Z,13.80
2024-02-16T03:30:41.080Z,17.13
2024-02-16T03:33:07.986Z,21.10
2024-02-16T03:35:34.777Z,22.33
2024-02-16T03:38:01.521Z,18.23
2024-02-16T03:40:29.290Z,15.05
2024-02-16T03:42:56.419Z,14.32
2024-02-16T03:45:24.817Z,21.25
2024-02-16T03:47:54.051Z,11.13
2024-02-16T03:50:21.137Z,14.00
2024-02-16T03:52:47.887Z,12.75
2024-02-16T03:55:14.679Z,19.08
2024-02-16T03:57:41.486Z,11.43
2024-02-16T04:00:09.448Z,14.38
2024-02-16T04:02:37.441Z,21.95
2024-02-16T04:05:05.096Z,23.70
2024-02-16T04:07:32.237Z,18.73
2024-02-16T04:09:59.116Z,17.58
2024-02-16T04:12:25.944Z,15.57
2024-02-16T04:14:52.764Z,10.80
2024-02-16T04:17:19.756Z,17.13
2024-02-16T04:19:46.852Z,17.45
2024-02-16T04:22:13.718Z,14.25
2024-02-16T04:24:40.505Z,12.10
2024-02-16T04:27:09.058Z,31.50
2024-02-16T04:29:36.217Z,137.75
2024-02-16T04:32:03.015Z,27.33
2024-02-16T04:34:30.296Z,102.78
2024-02-16T04:36:57.189Z,100.35
2024-02-16T04:39:24.418Z,17.73
2024-02-16T04:41:53.150Z,15.57
2024-02-16T04:44:20.115Z,12.70
2024-02-16T04:46:46.846Z,13.27
2024-02-16T04:49:14.238Z,19.77
2024-02-16T04:51:41.767Z,13.10
2024-02-16T04:54:08.934Z,89.40
2024-02-16T04:56:35.851Z,140.57
2024-02-16T04:59:03.106Z,33.75
2024-02-16T05:01:31.283Z,44.60
2024-02-16T05:03:59.424Z,26.10
2024-02-16T05:06:26.546Z,36.92
2024-02-16T05:08:53.364Z,96.05
2024-02-16T05:11:20.327Z,87.28
2024-02-16T05:13:47.144Z,17.75
2024-02-16T05:16:13.951Z,19.48
2024-02-16T05:18:42.030Z,14.38
2024-02-16T05:21:09.009Z,15.07
2024-02-16T05:23:35.884Z,11.73
2024-02-16T05:26:02.659Z,12.60
2024-02-16T05:28:30.291Z,7.75
2024-02-16T05:30:57.187Z,7.03
2024-02-16T05:33:24.644Z,21.55
2024-02-16T05:35:56.280Z,23.38
2024-02-16T05:38:33.883Z,30.33
2024-02-16T05:41:01.262Z,47.08
2024-02-16T05:43:28.135Z,20.70
2024-02-16T05:45:55.078Z,24.90
2024-02-16T05:48:23.204Z,21.15
2024-02-16T05:50:50.369Z,15.15
2024-02-16T05:53:17.306Z,13.85
2024-02-16T05:55:45.834Z,13.80
2024-02-16T05:58:13.656Z,13.85
2024-02-16T06:00:40.564Z,16.90
2024-02-16T06:03:08.681Z,28.13
2024-02-16T06:05:35.644Z,58.63
2024-02-16T06:08:02.359Z,119.53
2024-02-16T06:10:29.122Z,46.45
2024-02-16T06:12:55.981Z,27.92
2024-02-16T06:15:22.899Z,30.95
2024-02-16T06:17:51.054Z,36.25
2024-02-16T06:20:20.814Z,29.40
2024-02-16T06:22:48.320Z,33.78
2024-02-16T06:25:16.334Z,24.98
2024-02-16T06:27:43.475Z,13.95
2024-02-16T06:30:14.396Z,13.50
2024-02-16T06:32:44.567Z,15.05
2024-02-16T06:35:12.515Z,16.02
2024-02-16T06:37:40.161Z,15.70
2024-02-16T06:40:12.745Z,17.42
2024-02-16T06:42:39.698Z,26.10
2024-02-16T06:45:07.357Z,31.05
2024-02-16T06:47:34.101Z,35.90
2024-02-16T06:50:00.915Z,30.38
2024-02-16T06:52:27.901Z,24.30
2024-02-16T06:54:55.385Z,37.30
2024-02-16T06:57:22.224Z,26.77
2024-02-16T06:59:49.196Z,40.28
2024-02-16T07:02:17.284Z,54.22
2024-02-16T07:04:44.142Z,29.63
2024-02-16T07:07:11.216Z,28.40
2024-02-16T07:09:38.371Z,24.92
2024-02-16T07:12:06.075Z,28.38
2024-02-16T07:14:32.901Z,20.88
2024-02-16T07:16:59.721Z,21.98
2024-02-16T07:19:26.835Z,22.77
2024-02-16T07:21:53.888Z,21.10
2024-02-16T07:24:20.719Z,18.70
2024-02-16T07:26:47.547Z,18.00
2024-02-16T07:29:17.826Z,17.60
2024-02-16T07:31:45.046Z,20.50
2024-02-16T07:34:12.900Z,18.13
2024-02-16T07:36:40.001Z,17.48
2024-02-16T07:39:06.947Z,16.75
2024-02-16T07:41:33.758Z,14.07
2024-02-16T07:44:00.488Z,13.07
2024-02-16T07:46:27.226Z,12.20
2024-02-16T07:48:54.131Z,13.93
2024-02-16T07:51:21.020Z,12.45
2024-02-16T07:53:47.951Z,11.15
2024-02-16T07:56:15.236Z,15.52
2024-02-16T07:58:45.212Z,11.30
2024-02-16T08:01:16.558Z,12.60
2024-02-16T08:03:43.734Z,9.38
2024-02-16T08:06:10.600Z,13.27
2024-02-16T08:08:37.412Z,12.23
2024-02-16T08:11:04.464Z,10.80
2024-02-16T08:13:31.297Z,10.38
2024-02-16T08:15:58.048Z,12.15
2024-02-16T08:18:25.169Z,8.98
2024-02-16T08:20:53.189Z,9.15
2024-02-16T08:23:21.363Z,8.43
2024-02-16T08:25:48.033Z,8.35
2024-02-16T08:28:15.238Z,5.18
2024-02-16T08:30:45.185Z,29.40
2024-02-16T08:33:14.071Z,17.17
2024-02-16T08:35:40.968Z,7.82
2024-02-16T08:38:11.465Z,6.88
2024-02-16T08:40:38.963Z,5.75
2024-02-16T08:43:08.264Z,6.78
2024-02-16T08:45:35.560Z,6.55
2024-02-16T08:48:05.252Z,9.05
2024-02-16T08:50:32.289Z,6.75
2024-02-16T08:52:59.063Z,7.55
2024-02-16T08:55:25.928Z,5.18
2024-02-16T08:57:52.866Z,6.57
2024-02-16T09:00:20.015Z,5.60
2024-02-16T09:02:48.115Z,3.92
2024-02-16T09:05:15.491Z,5.47
2024-02-16T09:07:42.382Z,5.85
2024-02-16T09:10:09.662Z,3.95
2024-02-16T09:12:36.707Z,4.20
2024-02-16T09:15:03.740Z,6.57
2024-02-16T09:17:30.607Z,5.03
2024-02-16T09:19:57.380Z,7.05
2024-02-16T09:22:37.218Z,3.80
2024-02-16T09:25:04.955Z,6.72
2024-02-16T09:27:32.522Z,4.20
2024-02-16T09:29:59.807Z,3.10
2024-02-16T09:32:26.613Z,3.75
2024-02-16T09:34:55.919Z,4.70
2024-02-16T09:37:22.752Z,4.20
2024-02-16T09:39:49.376Z,5.85
2024-02-16T09:42:17.491Z,4.15
2024-02-16T09:44:45.118Z,6.18
2024-02-16T09:47:13.850Z,6.85
2024-02-16T09:49:41.449Z,3.45
2024-02-16T09:52:12.096Z,5.40
2024-02-16T09:54:40.553Z,13.93
2024-02-16T09:57:07.637Z,12.60
2024-02-16T09:59:34.406Z,9.13
2024-02-16T10:02:04.202Z,6.28
2024-02-16T10:04:32.912Z,4.80
2024-02-16T10:07:01.602Z,5.07
2024-02-16T10:09:31.655Z,4.13
2024-02-16T10:11:58.690Z,4.10
2024-02-16T10:14:26.650Z,4.40
2024-02-16T10:17:03.860Z,8.07
2024-02-16T10:19:43.802Z,5.18
2024-02-16T10:22:14.543Z,4.50
2024-02-16T10:24:44.231Z,3.20
2024-02-16T10:27:18.985Z,4.38
2024-02-16T10:29:46.596Z,5.78
2024-02-16T10:32:13.954Z,4.82
2024-02-16T10:34:40.972Z,5.43
2024-02-16T10:37:08.338Z,5.38
2024-02-16T10:39:35.295Z,8.27
2024-02-16T10:42:01.971Z,6.78
2024-02-16T10:44:31.720Z,9.55
2024-02-16T10:46:58.464Z,5.90
2024-02-16T10:49:25.612Z,5.50
2024-02-16T10:51:56.810Z,8.18
2024-02-16T10:54:24.837Z,4.50
2024-02-16T10:56:54.599Z,4.05
2024-02-16T10:59:21.512Z,6.28
2024-02-16T11:01:48.599Z,5.05
2024-02-16T11:04:18.271Z,6.13
2024-02-16T11:07:00.450Z,4.20
2024-02-16T11:09:31.362Z,4.20
2024-02-16T11:12:02.063Z,6.20
2024-02-16T11:14:44.968Z,5.03
2024-02-16T11:17:21.574Z,4.65
2024-02-16T11:19:48.902Z,6.60
2024-02-16T11:22:20.293Z,5.53
2024-02-16T11:24:51.455Z,5.10
2024-02-16T11:27:23.491Z,4.47
2024-02-16T11:29:50.760Z,4.90
2024-02-16T11:32:19.562Z,4.53
2024-02-16T11:34:46.525Z,4.00
2024-02-16T11:37:14.035Z,8.98
2024-02-16T11:39:42.518Z,5.05
2024-02-16T11:42:13.588Z,5.13
2024-02-16T11:44:42.651Z,4.60
2024-02-16T11:47:13.651Z,5.25
2024-02-16T11:49:40.975Z,6.40
2024-02-16T11:52:08.458Z,2.97
2024-02-16T11:54:36.550Z,3.88
2024-02-16T11:57:04.454Z,3.03
2024-02-16T11:59:32.410Z,3.97
2024-02-16T12:01:59.864Z,3.60
2024-02-16T12:04:27.201Z,4.63
2024-02-16T12:07:04.699Z,5.82
2024-02-16T12:09:36.690Z,8.30
2024-02-16T12:12:04.050Z,4.30
2024-02-16T12:14:31.091Z,4.22
2024-02-16T12:16:58.417Z,3.78
2024-02-16T12:19:25.344Z,4.45
2024-02-16T12:21:58.585Z,5.95
2024-02-16T12:24:25.512Z,4.45
2024-02-16T12:26:52.176Z,3.17
2024-02-16T12:29:18.993Z,4.47
2024-02-16T12:31:46.212Z,5.18
2024-02-16T12:34:14.026Z,3.33
2024-02-16T12:36:42.568Z,3.03
2024-02-16T12:39:13.464Z,4.90
2024-02-16T12:41:40.418Z,4.55
2024-02-16T12:44:07.104Z,4.35
2024-02-16T12:46:33.827Z,3.05
2024-02-16T12:49:00.732Z,4.82
2024-02-16T12:51:27.625Z,4.00
2024-02-16T12:53:54.262Z,5.15
2024-02-16T12:56:22.568Z,4.22
2024-02-16T12:58:49.451Z,5.10
2024-02-16T13:01:25.582Z,5.22
2024-02-16T13:03:53.374Z,5.90
2024-02-16T13:06:23.136Z,5.47
2024-02-16T13:08:52.160Z,7.80
2024-02-16T13:11:19.263Z,4.05
2024-02-16T13:17:39.042Z,3.95
2024-02-16T13:20:10.794Z,23.67
2024-02-16T13:22:37.862Z,10.45
2024-02-16T13:25:05.178Z,6.72
2024-02-16T13:27:31.999Z,4.90
2024-02-16T13:29:58.931Z,4.90
2024-02-16T13:32:26.356Z,4.43
2024-02-16T13:34:53.112Z,5.60
2024-02-16T13:37:19.914Z,5.65
2024-02-16T13:39:46.630Z,5.78
2024-02-16T13:42:14.143Z,4.22
2024-02-16T13:44:40.871Z,6.07
2024-02-16T13:47:07.590Z,5.30
2024-02-16T13:49:34.484Z,9.18
2024-02-16T13:52:01.340Z,4.65
2024-02-16T13:54:28.095Z,3.60
2024-02-16T13:56:55.004Z,4.05
2024-02-16T13:59:21.938Z,5.28
2024-02-16T14:01:49.361Z,4.80
2024-02-16T14:04:16.287Z,4.75
2024-02-16T14:06:43.169Z,6.53
2024-02-16T14:09:17.034Z,6.80
2024-02-16T14:11:50.365Z,11.88
2024-02-16T14:14:28.472Z,9.35
2024-02-16T14:16:59.664Z,14.40
2024-02-16T14:19:26.372Z,9.02
2024-02-16T14:21:53.160Z,7.88
2024-02-16T14:24:19.986Z,4.70
2024-02-16T14:26:47.278Z,5.10
2024-02-16T14:29:14.167Z,4.18
2024-02-16T14:31:40.819Z,6.30
2024-02-16T14:34:07.670Z,4.38
2024-02-16T14:36:35.116Z,3.85
2024-02-16T14:39:01.845Z,3.78
2024-02-16T14:41:29.816Z,6.07
2024-02-16T14:43:56.472Z,4.70
2024-02-16T14:46:26.818Z,6.38
2024-02-16T14:48:53.669Z,5.22
2024-02-16T14:51:21.098Z,6.30
2024-02-16T14:53:47.961Z,5.85
2024-02-16T14:56:15.487Z,3.47
2024-02-16T14:58:42.398Z,5.20
2024-02-16T15:01:10.885Z,5.75
2024-02-16T15:03:37.753Z,4.55
2024-02-16T15:06:04.674Z,5.95
2024-02-16T15:08:31.605Z,5.57
2024-02-16T15:10:58.415Z,7.78
2024-02-16T15:13:26.096Z,4.88
2024-02-16T15:15:52.884Z,8.48
2024-02-16T15:18:19.962Z,6.40
2024-02-16T15:20:47.335Z,8.00
2024-02-16T15:23:14.011Z,5.95
2024-02-16T15:25:41.139Z,6.88
2024-02-16T15:28:07.760Z,7.07
2024-02-16T15:30:34.626Z,8.82
2024-02-16T15:33:01.458Z,14.55
2024-02-16T15:35:28.275Z,8.95
2024-02-16T15:37:54.909Z,9.85
2024-02-16T15:40:21.710Z,11.75
2024-02-16T15:43:04.629Z,8.23
2024-02-16T15:45:31.841Z,8.50
2024-02-16T15:47:58.896Z,6.80
2024-02-16T15:50:31.574Z,7.70
2024-02-16T15:52:58.444Z,8.77
2024-02-16T15:55:25.214Z,9.77
2024-02-16T15:57:51.981Z,9.40
2024-02-16T16:00:19.188Z,7.72
2024-02-16T16:02:45.926Z,6.95
2024-02-16T16:05:12.833Z,7.80
2024-02-16T16:07:43.699Z,6.72
2024-02-16T16:10:12.090Z,12.82
2024-02-16T16:12:40.208Z,5.20
2024-02-16T16:15:08.013Z,5.78
2024-02-16T16:17:34.846Z,36.00
2024-02-16T16:20:02.259Z,144.23
2024-02-16T16:22:29.711Z,96.97
2024-02-16T16:24:56.371Z,42.80
2024-02-16T16:27:23.181Z,25.13
2024-02-16T16:29:49.882Z,23.38
2024-02-16T16:32:16.737Z,18.90
2024-02-16T16:34:43.538Z,21.75
2024-02-16T16:37:10.519Z,38.10
2024-02-16T16:39:37.753Z,29.35
2024-02-16T16:42:04.777Z,20.15
2024-02-16T16:44:31.560Z,13.02
2024-02-16T16:46:58.364Z,16.90
2024-02-16T16:49:26.284Z,13.90
2024-02-16T16:51:53.115Z,22.77
2024-02-16T16:54:19.995Z,77.25
2024-02-16T16:56:46.782Z,64.75
2024-02-16T16:59:13.514Z,63.53
2024-02-16T17:01:40.358Z,39.33
2024-02-16T17:04:07.025Z,23.77
2024-02-16T17:06:34.923Z,30.83
2024-02-16T17:09:02.182Z,30.67
2024-02-16T17:11:29.034Z,19.60
2024-02-16T17:13:55.737Z,17.00
2024-02-16T17:16:22.686Z,15.07
2024-02-16T17:18:49.651Z,39.15
2024-02-16T17:21:16.485Z,15.95
2024-02-16T17:23:44.970Z,34.53
2024-02-16T17:26:11.646Z,24.92
2024-02-16T17:28:38.592Z,35.17
2024-02-16T17:31:05.409Z,38.67
2024-02-16T17:33:32.411Z,40.30
2024-02-16T17:35:59.275Z,40.70
2024-02-16T17:38:26.109Z,34.90
2024-02-16T17:40:52.783Z,32.38
2024-02-16T17:43:19.564Z,27.67
2024-02-16T17:45:46.444Z,25.70
2024-02-16T17:48:13.332Z,21.33
2024-02-16T17:50:40.167Z,18.02
2024-02-16T17:53:07.069Z,18.20
2024-02-16T17:55:35.071Z,26.65
2024-02-16T17:58:03.536Z,26.13
2024-02-16T18:00:30.837Z,27.10
2024-02-16T18:02:58.202Z,19.88
2024-02-16T18:05:24.997Z,18.83
2024-02-16T18:07:52.840Z,16.83
2024-02-16T18:10:19.716Z,13.50
2024-02-16T18:12:46.682Z,14.98
2024-02-16T18:15:14.341Z,15.93
2024-02-16T18:17:41.298Z,17.17
2024-02-16T18:20:11.619Z,20.55
2024-02-16T18:22:39.920Z,18.13
2024-02-16T18:25:07.462Z,23.60
2024-02-16T18:27:34.280Z,36.33
2024-02-16T18:30:01.060Z,32.15
2024-02-16T18:32:27.889Z,34.88
2024-02-16T18:34:54.702Z,23.55
2024-02-16T18:37:21.696Z,22.50
2024-02-16T18:39:48.431Z,22.65
2024-02-16T18:42:15.269Z,15.55
2024-02-16T18:44:42.053Z,28.98
2024-02-16T18:47:08.776Z,33.42
2024-02-16T18:49:35.716Z,33.83
2024-02-16T18:52:02.502Z,33.35
2024-02-16T18:54:29.325Z,24.65
2024-02-16T18:56:56.067Z,17.33
2024-02-16T18:59:22.830Z,17.25
2024-02-16T19:01:51.130Z,23.23
2024-02-16T19:04:18.289Z,20.30
2024-02-16T19:06:45.277Z,29.00
2024-02-16T19:09:12.206Z,32.05
2024-02-16T19:11:39.003Z,42.58
2024-02-16T19:14:05.864Z,54.85
2024-02-16T19:16:32.677Z,86.50
2024-02-16T19:18:59.413Z,49.42
2024-02-16T19:21:26.285Z,54.63
2024-02-16T19:23:53.063Z,60.85
2024-02-16T19:26:20.358Z,60.00
2024-02-16T19:28:47.178Z,57.10
2024-02-16T19:31:14.737Z,29.15
2024-02-16T19:33:41.731Z,18.15
2024-02-16T19:36:10.040Z,20.98
2024-02-16T19:38:37.901Z,19.13
2024-02-16T19:41:05.419Z,19.30
2024-02-16T19:43:32.325Z,18.45
2024-02-16T19:45:59.969Z,17.80
2024-02-16T19:48:26.902Z,14.30
2024-02-16T19:50:54.430Z,20.30
2024-02-16T19:53:22.157Z,19.60
2024-02-16T19:55:48.936Z,16.73
2024-02-16T19:58:15.730Z,13.60
2024-02-16T20:00:43.594Z,16.88
2024-02-16T20:03:10.427Z,16.27
2024-02-16T20:05:37.243Z,28.23
2024-02-16T20:08:04.393Z,26.58
2024-02-16T20:10:31.176Z,29.65
2024-02-16T20:12:57.914Z,31.05
2024-02-16T20:15:30.014Z,18.23
2024-02-16T20:17:58.043Z,20.75
2024-02-16T20:20:25.425Z,17.40
2024-02-16T20:22:52.202Z,13.27
2024-02-16T20:25:22.861Z,16.08
2024-02-16T20:27:54.226Z,17.65
2024-02-16T20:30:21.093Z,21.17
2024-02-16T20:32:51.823Z,21.83
2024-02-16T20:35:18.900Z,13.85
2024-02-16T20:37:46.801Z,14.25
2024-02-16T20:40:13.762Z,16.15
2024-02-16T20:42:40.587Z,15.82
2024-02-16T20:45:07.617Z,19.02
2024-02-16T20:47:34.471Z,10.40
2024-02-16T20:50:02.108Z,8.85
2024-02-16T20:52:29.173Z,13.40
2024-02-16T20:54:55.929Z,27.55
2024-02-16T20:57:22.752Z,89.22
2024-02-16T20:59:49.607Z,68.20
2024-02-16T21:02:19.226Z,72.25
2024-02-16T21:04:49.731Z,58.00
2024-02-16T21:07:16.559Z,54.45
2024-02-16T21:09:44.505Z,46.72
2024-02-16T21:12:11.517Z,34.42
2024-02-16T21:14:38.524Z,37.00
2024-02-16T21:17:05.478Z,33.78
2024-02-16T21:19:34.043Z,44.60
2024-02-16T21:22:00.906Z,47.65
2024-02-16T21:24:27.837Z,61.85
2024-02-16T21:26:54.667Z,43.30
2024-02-16T21:29:21.424Z,37.38
2024-02-16T21:31:48.286Z,35.60
2024-02-16T21:34:15.286Z,36.72
2024-02-16T21:36:42.467Z,23.05
2024-02-16T21:39:10.147Z,25.92
2024-02-16T21:41:37.084Z,30.83
2024-02-16T21:44:07.042Z,31.83
2024-02-16T21:46:35.540Z,32.05
2024-02-16T21:49:07.426Z,32.67
2024-02-16T21:51:38.362Z,30.63
2024-02-16T21:54:06.467Z,35.50
2024-02-16T21:56:33.801Z,42.70
2024-02-16T21:59:01.509Z,36.38
2024-02-16T22:01:28.698Z,32.45
2024-02-16T22:03:55.673Z,49.22
2024-02-16T22:06:26.437Z,58.90
2024-02-16T22:08:53.954Z,51.60
2024-02-16T22:11:24.037Z,39.30
2024-02-16T22:13:50.773Z,60.53
2024-02-16T22:16:18.000Z,55.90
2024-02-16T22:18:45.752Z,38.45
2024-02-16T22:21:13.228Z,28.88
2024-02-16T22:23:40.307Z,26.30
2024-02-16T22:26:07.438Z,16.30
2024-02-16T22:28:34.235Z,64.07
2024-02-16T22:31:01.104Z,46.72
2024-02-16T22:33:28.112Z,22.52
2024-02-16T22:35:55.205Z,23.60
2024-02-16T22:38:25.019Z,44.97
2024-02-16T22:40:51.859Z,20.55
2024-02-16T22:43:18.584Z,20.38
2024-02-16T22:45:45.593Z,28.67
2024-02-16T22:48:15.083Z,22.13
2024-02-16T22:50:43.052Z,18.13
2024-02-16T22:53:10.071Z,49.40
2024-02-16T22:55:40.248Z,45.38
2024-02-16T22:58:09.470Z,36.42
2024-02-16T23:00:41.722Z,22.15
2024-02-16T23:03:11.019Z,19.20
2024-02-16T23:05:38.509Z,18.40
2024-02-16T23:08:07.972Z,20.92
2024-02-16T23:10:35.091Z,24.33
2024-02-16T23:13:03.609Z,22.77
2024-02-16T23:15:30.655Z,17.27
2024-02-16T23:17:57.438Z,15.48
2024-02-16T23:20:25.124Z,16.33
2024-02-16T23:23:11.321Z,16.33
2024-02-16T23:25:48.066Z,19.73
2024-02-16T23:28:15.694Z,24.65
2024-02-16T23:30:46.001Z,18.35
2024-02-16T23:33:13.312Z,11.93
2024-02-16T23:35:40.435Z,12.25
2024-02-16T23:38:07.279Z,14.90
2024-02-16T23:40:34.008Z,14.40
2024-02-16T23:43:00.790Z,11.93
2024-02-16T23:45:29.135Z,13.60
2024-02-16T23:47:58.760Z,17.95
2024-02-16T23:50:26.917Z,18.30
2024-02-16T23:52:54.209Z,15.85
2024-02-16T23:55:21.037Z,15.35
2024-02-16T23:57:47.787Z,18.02
